Time;durP1;ratioP1;P1;durP2;ratioP2;P2;SDS_P1;SDS_P2;PMS_P1;PMS_P2;Temp;Humidity;BMP_temperature;BMP_pressure;BME280_temperature;BME280_humidity;BME280_pressure;Samples;Min_cycle;Max_cycle;Signal;HPM_P1;HPM_P2
2024/03/04 00:02:09;;;;;;;3.7;2;;;;;;;;;;;;;
2024/03/04 00:04:32;;;;;;;4.9;2.2;;;;;;;;;;;;;
2024/03/04 00:06:58;;;;;;;3.2;1.9;;;;;;;;;;;;;
2024/03/04 00:09:22;;;;;;;5.4;2.8;;;;;;;;;;;;;
2024/03/04 00:11:46;;;;;;;4.8;2.6;;;;;;;;;;;;;
2024/03/04 00:14:12;;;;;;;3.8;2.5;;;;;;;;;;;;;
2024/03/04 00:16:36;;;;;;;3.3;2.1;;;;;;;;;;;;;
2024/03/04 00:19:03;;;;;;;5.1;2.4;;;;;;;;;;;;;
2024/03/04 00:21:27;;;;;;;2.9;2;;;;;;;;;;;;;
2024/03/04 00:23:53;;;;;;;3.4;1.8;;;;;;;;;;;;;
2024/03/04 00:26:17;;;;;;;3.3;1.8;;;;;;;;;;;;;
2024/03/04 00:28:42;;;;;;;3.2;1.8;;;;;;;;;;;;;
2024/03/04 00:31:08;;;;;;;3;1.5;;;;;;;;;;;;;
2024/03/04 00:33:33;;;;;;;2.5;1.5;;;;;;;;;;;;;
2024/03/04 00:35:57;;;;;;;1.8;1.3;;;;;;;;;;;;;
2024/03/04 00:38:23;;;;;;;1.8;1.4;;;;;;;;;;;;;
2024/03/04 00:40:49;;;;;;;2.2;1.6;;;;;;;;;;;;;
2024/03/04 00:43:13;;;;;;;2.8;1.2;;;;;;;;;;;;;
2024/03/04 00:45:38;;;;;;;3.4;1.2;;;;;;;;;;;;;
2024/03/04 00:48:03;;;;;;;2.3;1.3;;;;;;;;;;;;;
2024/03/04 00:50:29;;;;;;;2.2;1.4;;;;;;;;;;;;;
2024/03/04 00:52:55;;;;;;;2.9;1.1;;;;;;;;;;;;;
2024/03/04 00:55:19;;;;;;;2.2;1.2;;;;;;;;;;;;;
2024/03/04 00:57:44;;;;;;;1.9;1.1;;;;;;;;;;;;;
2024/03/04 01:00:14;;;;;;;2.4;1.1;;;;;;;;;;;;;
2024/03/04 01:02:34;;;;;;;2;1.2;;;;;;;;;;;;;
2024/03/04 01:04:59;;;;;;;2.2;1.1;;;;;;;;;;;;;
2024/03/04 01:07:25;;;;;;;1.4;1.2;;;;;;;;;;;;;
2024/03/04 01:09:49;;;;;;;4.1;1.8;;;;;;;;;;;;;
2024/03/04 01:12:15;;;;;;;2.3;1.3;;;;;;;;;;;;;
2024/03/04 01:14:40;;;;;;;1.7;1.2;;;;;;;;;;;;;
2024/03/04 01:17:12;;;;;;;2.1;1.3;;;;;;;;;;;;;
2024/03/04 01:19:33;;;;;;;2.6;1.3;;;;;;;;;;;;;
2024/03/04 01:21:55;;;;;;;2.9;1.5;;;;;;;;;;;;;
2024/03/04 01:24:20;;;;;;;3.4;1.5;;;;;;;;;;;;;
2024/03/04 01:26:45;;;;;;;3.4;1.5;;;;;;;;;;;;;
2024/03/04 01:29:10;;;;;;;3;1.9;;;;;;;;;;;;;
2024/03/04 01:31:35;;;;;;;3.5;1.6;;;;;;;;;;;;;
2024/03/04 01:34:02;;;;;;;3.1;1.4;;;;;;;;;;;;;
2024/03/04 01:36:25;;;;;;;2.9;1.3;;;;;;;;;;;;;
2024/03/04 01:38:51;;;;;;;2;1.1;;;;;;;;;;;;;
2024/03/04 01:41:16;;;;;;;2.7;1;;;;;;;;;;;;;
2024/03/04 01:43:41;;;;;;;3;1.5;;;;;;;;;;;;;
2024/03/04 01:46:06;;;;;;;2.3;1.2;;;;;;;;;;;;;
2024/03/04 01:48:32;;;;;;;2.2;1;;;;;;;;;;;;;
2024/03/04 01:50:56;;;;;;;1.3;1.1;;;;;;;;;;;;;
2024/03/04 01:53:22;;;;;;;2;1.1;;;;;;;;;;;;;
2024/03/04 01:55:46;;;;;;;1.6;1.1;;;;;;;;;;;;;
2024/03/04 01:58:12;;;;;;;3.1;1.1;;;;;;;;;;;;;
2024/03/04 02:00:39;;;;;;;3.2;1.1;;;;;;;;;;;;;
2024/03/04 02:03:02;;;;;;;4.5;1.4;;;;;;;;;;;;;
2024/03/04 02:05:27;;;;;;;2.4;1;;;;;;;;;;;;;
2024/03/04 02:07:52;;;;;;;3.4;1.1;;;;;;;;;;;;;
2024/03/04 02:10:17;;;;;;;3.9;1.4;;;;;;;;;;;;;
2024/03/04 02:12:42;;;;;;;2.7;1.5;;;;;;;;;;;;;
2024/03/04 02:15:08;;;;;;;3.2;1.5;;;;;;;;;;;;;
2024/03/04 02:17:32;;;;;;;3.4;1.6;;;;;;;;;;;;;
2024/03/04 02:19:57;;;;;;;2.3;1.4;;;;;;;;;;;;;
2024/03/04 02:22:23;;;;;;;3.2;1.2;;;;;;;;;;;;;
2024/03/04 02:24:48;;;;;;;3.3;1.6;;;;;;;;;;;;;
2024/03/04 02:27:13;;;;;;;2.8;1.4;;;;;;;;;;;;;
2024/03/04 02:29:38;;;;;;;3.4;1.6;;;;;;;;;;;;;
2024/03/04 02:32:03;;;;;;;3.5;1.5;;;;;;;;;;;;;
2024/03/04 02:34:28;;;;;;;2.1;1.4;;;;;;;;;;;;;
2024/03/04 02:36:53;;;;;;;2.7;1.4;;;;;;;;;;;;;
2024/03/04 02:39:18;;;;;;;3.5;1.3;;;;;;;;;;;;;
2024/03/04 02:41:43;;;;;;;3.5;1.4;;;;;;;;;;;;;
2024/03/04 02:44:09;;;;;;;1.5;1.1;;;;;;;;;;;;;
2024/03/04 02:46:34;;;;;;;3.6;1.6;;;;;;;;;;;;;
2024/03/04 02:48:59;;;;;;;4.5;1.8;;;;;;;;;;;;;
2024/03/04 02:51:24;;;;;;;4.8;1.7;;;;;;;;;;;;;
2024/03/04 02:53:49;;;;;;;4.7;1.3;;;;;;;;;;;;;
2024/03/04 02:56:14;;;;;;;3.2;1.4;;;;;;;;;;;;;
2024/03/04 02:58:39;;;;;;;3.7;1.5;;;;;;;;;;;;;
2024/03/04 03:01:04;;;;;;;4.9;1.7;;;;;;;;;;;;;
2024/03/04 03:03:30;;;;;;;6.3;1.7;;;;;;;;;;;;;
2024/03/04 03:05:55;;;;;;;2.7;1.7;;;;;;;;;;;;;
2024/03/04 03:08:20;;;;;;;4.1;1.4;;;;;;;;;;;;;
2024/03/04 03:10:46;;;;;;;2.1;1.6;;;;;;;;;;;;;
2024/03/04 03:13:11;;;;;;;3.7;1.7;;;;;;;;;;;;;
2024/03/04 03:15:36;;;;;;;8.4;2.8;;;;;;;;;;;;;
2024/03/04 03:18:00;;;;;;;7.8;3.4;;;;;;;;;;;;;
2024/03/04 03:20:26;;;;;;;5.5;2.8;;;;;;;;;;;;;
2024/03/04 03:22:51;;;;;;;8.2;3;;;;;;;;;;;;;
2024/03/04 03:25:16;;;;;;;5.9;2.3;;;;;;;;;;;;;
2024/03/04 03:27:41;;;;;;;4.3;2.5;;;;;;;;;;;;;
2024/03/04 03:30:06;;;;;;;3.7;1.8;;;;;;;;;;;;;
2024/03/04 03:32:31;;;;;;;4.9;2.3;;;;;;;;;;;;;
2024/03/04 03:34:56;;;;;;;4.5;2.1;;;;;;;;;;;;;
2024/03/04 03:37:21;;;;;;;5.2;2;;;;;;;;;;;;;
2024/03/04 03:39:47;;;;;;;5.4;2.1;;;;;;;;;;;;;
2024/03/04 03:42:12;;;;;;;3.4;2.2;;;;;;;;;;;;;
2024/03/04 03:44:37;;;;;;;6.8;2.2;;;;;;;;;;;;;
2024/03/04 03:47:02;;;;;;;5.5;2.2;;;;;;;;;;;;;
2024/03/04 03:49:27;;;;;;;3.9;1.9;;;;;;;;;;;;;
2024/03/04 03:51:53;;;;;;;4.4;1.7;;;;;;;;;;;;;
2024/03/04 03:54:17;;;;;;;4.7;1.7;;;;;;;;;;;;;
2024/03/04 03:56:42;;;;;;;3.2;1.9;;;;;;;;;;;;;
2024/03/04 03:59:08;;;;;;;4;1.8;;;;;;;;;;;;;
2024/03/04 04:02:42;;;;;;;3.6;1.8;;;;;;;;;;;;;
2024/03/04 04:05:07;;;;;;;6.5;2.3;;;;;;;;;;;;;
2024/03/04 04:07:32;;;;;;;4.1;1.6;;;;;;;;;;;;;
2024/03/04 04:09:57;;;;;;;5.5;2.2;;;;;;;;;;;;;
2024/03/04 04:12:22;;;;;;;3.1;1.5;;;;;;;;;;;;;
2024/03/04 04:14:47;;;;;;;4.4;1.7;;;;;;;;;;;;;
2024/03/04 04:17:12;;;;;;;5.8;2.2;;;;;;;;;;;;;
2024/03/04 04:19:37;;;;;;;3.8;2;;;;;;;;;;;;;
2024/03/04 04:22:03;;;;;;;5.1;1.7;;;;;;;;;;;;;
2024/03/04 04:24:28;;;;;;;4.5;2.3;;;;;;;;;;;;;
2024/03/04 04:26:53;;;;;;;4.5;2.9;;;;;;;;;;;;;
2024/03/04 04:29:18;;;;;;;4;2.4;;;;;;;;;;;;;
2024/03/04 04:31:43;;;;;;;4.9;2.6;;;;;;;;;;;;;
2024/03/04 04:34:08;;;;;;;5.7;3.1;;;;;;;;;;;;;
2024/03/04 04:36:34;;;;;;;9.3;4.5;;;;;;;;;;;;;
2024/03/04 04:38:59;;;;;;;4.5;2.5;;;;;;;;;;;;;
2024/03/04 04:41:24;;;;;;;5.1;2.4;;;;;;;;;;;;;
2024/03/04 04:43:48;;;;;;;7.5;2.1;;;;;;;;;;;;;
2024/03/04 04:46:15;;;;;;;6.1;2.3;;;;;;;;;;;;;
2024/03/04 04:48:40;;;;;;;5.4;2.2;;;;;;;;;;;;;
2024/03/04 04:51:05;;;;;;;7.5;3.4;;;;;;;;;;;;;
2024/03/04 04:53:30;;;;;;;6.5;2.7;;;;;;;;;;;;;
2024/03/04 04:55:55;;;;;;;5.5;2.1;;;;;;;;;;;;;
2024/03/04 04:58:20;;;;;;;5;2.1;;;;;;;;;;;;;
2024/03/04 05:00:45;;;;;;;6.1;2.5;;;;;;;;;;;;;
2024/03/04 05:03:10;;;;;;;6.1;2.5;;;;;;;;;;;;;
2024/03/04 05:05:35;;;;;;;5.3;2.2;;;;;;;;;;;;;
2024/03/04 05:08:01;;;;;;;5.4;2.6;;;;;;;;;;;;;
2024/03/04 05:10:26;;;;;;;5.4;2.4;;;;;;;;;;;;;
2024/03/04 05:12:51;;;;;;;5.2;2.4;;;;;;;;;;;;;
2024/03/04 05:15:16;;;;;;;5.5;3.5;;;;;;;;;;;;;
2024/03/04 05:17:42;;;;;;;7.6;3.1;;;;;;;;;;;;;
2024/03/04 05:20:09;;;;;;;8;3.2;;;;;;;;;;;;;
2024/03/04 05:22:31;;;;;;;11.3;3.5;;;;;;;;;;;;;
2024/03/04 05:24:57;;;;;;;7.9;2.2;;;;;;;;;;;;;
2024/03/04 05:27:22;;;;;;;6.3;2.5;;;;;;;;;;;;;
2024/03/04 05:29:48;;;;;;;8.8;3.1;;;;;;;;;;;;;
2024/03/04 05:32:12;;;;;;;6.7;3.2;;;;;;;;;;;;;
2024/03/04 05:34:37;;;;;;;4.1;2.1;;;;;;;;;;;;;
2024/03/04 05:37:02;;;;;;;5.9;2.6;;;;;;;;;;;;;
2024/03/04 05:39:31;;;;;;;8.8;2.9;;;;;;;;;;;;;
2024/03/04 05:41:53;;;;;;;8.2;3.7;;;;;;;;;;;;;
2024/03/04 05:44:19;;;;;;;7.2;3.3;;;;;;;;;;;;;
2024/03/04 05:46:43;;;;;;;9.6;4.1;;;;;;;;;;;;;
2024/03/04 05:49:10;;;;;;;8.3;3.8;;;;;;;;;;;;;
2024/03/04 05:51:33;;;;;;;6.8;3.6;;;;;;;;;;;;;
2024/03/04 05:53:58;;;;;;;8.6;5.1;;;;;;;;;;;;;
2024/03/04 05:56:24;;;;;;;7.2;4;;;;;;;;;;;;;
2024/03/04 05:58:48;;;;;;;6.9;2.9;;;;;;;;;;;;;
2024/03/04 06:01:13;;;;;;;6.8;3.2;;;;;;;;;;;;;
2024/03/04 06:03:38;;;;;;;10.2;4.4;;;;;;;;;;;;;
2024/03/04 06:06:03;;;;;;;9.1;5.3;;;;;;;;;;;;;
2024/03/04 06:08:29;;;;;;;8.5;4.3;;;;;;;;;;;;;
2024/03/04 06:10:54;;;;;;;6.8;3.8;;;;;;;;;;;;;
2024/03/04 06:13:19;;;;;;;13.9;7.2;;;;;;;;;;;;;
2024/03/04 06:15:44;;;;;;;20;8.4;;;;;;;;;;;;;
2024/03/04 06:18:09;;;;;;;12.9;7;;;;;;;;;;;;;
2024/03/04 06:20:34;;;;;;;18.3;8.3;;;;;;;;;;;;;
2024/03/04 06:23:00;;;;;;;7.7;3.4;;;;;;;;;;;;;
2024/03/04 06:25:25;;;;;;;9.4;4.6;;;;;;;;;;;;;
2024/03/04 06:27:50;;;;;;;23.5;10.2;;;;;;;;;;;;;
2024/03/04 06:30:15;;;;;;;28.7;12.9;;;;;;;;;;;;;
2024/03/04 06:32:40;;;;;;;40.2;17.7;;;;;;;;;;;;;
2024/03/04 06:35:05;;;;;;;33.7;14.8;;;;;;;;;;;;;
2024/03/04 06:37:31;;;;;;;35.6;15.8;;;;;;;;;;;;;
2024/03/04 06:39:55;;;;;;;25.5;11.4;;;;;;;;;;;;;
2024/03/04 06:42:21;;;;;;;19.2;6.9;;;;;;;;;;;;;
2024/03/04 06:44:46;;;;;;;11.1;3.8;;;;;;;;;;;;;
2024/03/04 06:47:11;;;;;;;11.4;3.4;;;;;;;;;;;;;
2024/03/04 06:49:36;;;;;;;9.6;3.8;;;;;;;;;;;;;
2024/03/04 06:52:02;;;;;;;6.6;2.8;;;;;;;;;;;;;
2024/03/04 06:54:26;;;;;;;8.6;3.7;;;;;;;;;;;;;
2024/03/04 06:56:51;;;;;;;9.2;3.9;;;;;;;;;;;;;
2024/03/04 06:59:16;;;;;;;10.4;3.5;;;;;;;;;;;;;
2024/03/04 07:01:43;;;;;;;6.4;3.4;;;;;;;;;;;;;
2024/03/04 07:04:07;;;;;;;10.5;3.5;;;;;;;;;;;;;
2024/03/04 07:06:32;;;;;;;10.8;4.1;;;;;;;;;;;;;
2024/03/04 07:08:57;;;;;;;9.6;5.2;;;;;;;;;;;;;
2024/03/04 07:11:22;;;;;;;12.8;5.7;;;;;;;;;;;;;
2024/03/04 07:13:47;;;;;;;10.2;4.8;;;;;;;;;;;;;
2024/03/04 07:16:12;;;;;;;11.1;4.8;;;;;;;;;;;;;
2024/03/04 07:18:37;;;;;;;11.1;5;;;;;;;;;;;;;
2024/03/04 07:21:02;;;;;;;11.5;4.7;;;;;;;;;;;;;
2024/03/04 07:23:27;;;;;;;8.9;4.3;;;;;;;;;;;;;
2024/03/04 07:25:52;;;;;;;11.3;5;;;;;;;;;;;;;
2024/03/04 07:28:18;;;;;;;12.5;4.9;;;;;;;;;;;;;
2024/03/04 07:30:43;;;;;;;9.7;4.9;;;;;;;;;;;;;
2024/03/04 07:33:11;;;;;;;10.1;5.5;;;;;;;;;;;;;
2024/03/04 07:35:33;;;;;;;12.5;5.2;;;;;;;;;;;;;
2024/03/04 07:37:58;;;;;;;10.6;5.4;;;;;;;;;;;;;
2024/03/04 07:40:24;;;;;;;9.2;4.6;;;;;;;;;;;;;
2024/03/04 07:42:48;;;;;;;14.8;5.1;;;;;;;;;;;;;
2024/03/04 07:45:13;;;;;;;10.4;3.9;;;;;;;;;;;;;
2024/03/04 07:47:38;;;;;;;7.5;3.4;;;;;;;;;;;;;
2024/03/04 07:50:04;;;;;;;11.3;3.9;;;;;;;;;;;;;
2024/03/04 07:52:29;;;;;;;7.1;3.7;;;;;;;;;;;;;
2024/03/04 07:54:54;;;;;;;7.3;3.7;;;;;;;;;;;;;
2024/03/04 07:57:19;;;;;;;5.6;3.2;;;;;;;;;;;;;
2024/03/04 07:59:44;;;;;;;5.9;2.7;;;;;;;;;;;;;
2024/03/04 08:02:09;;;;;;;7.2;3.4;;;;;;;;;;;;;
2024/03/04 08:04:35;;;;;;;9.7;3.4;;;;;;;;;;;;;
2024/03/04 08:07:00;;;;;;;5.7;2.9;;;;;;;;;;;;;
2024/03/04 08:09:24;;;;;;;6;3.2;;;;;;;;;;;;;
2024/03/04 08:11:49;;;;;;;6.2;2.9;;;;;;;;;;;;;
2024/03/04 08:14:15;;;;;;;6.4;2.8;;;;;;;;;;;;;
2024/03/04 08:16:40;;;;;;;6.5;2.9;;;;;;;;;;;;;
2024/03/04 08:19:05;;;;;;;5.1;3.1;;;;;;;;;;;;;
2024/03/04 08:21:30;;;;;;;7.2;3.6;;;;;;;;;;;;;
2024/03/04 08:23:55;;;;;;;11.5;3.6;;;;;;;;;;;;;
2024/03/04 08:26:21;;;;;;;5.1;3;;;;;;;;;;;;;
2024/03/04 08:28:46;;;;;;;5.6;3.3;;;;;;;;;;;;;
2024/03/04 08:31:10;;;;;;;5.7;3.5;;;;;;;;;;;;;
2024/03/04 08:33:36;;;;;;;5.8;3.7;;;;;;;;;;;;;
2024/03/04 08:36:01;;;;;;;6.2;3.2;;;;;;;;;;;;;
2024/03/04 08:38:26;;;;;;;5.8;3.4;;;;;;;;;;;;;
2024/03/04 08:40:52;;;;;;;6.5;4;;;;;;;;;;;;;
2024/03/04 08:43:16;;;;;;;7.7;3.5;;;;;;;;;;;;;
2024/03/04 08:45:41;;;;;;;3.9;3.1;;;;;;;;;;;;;
2024/03/04 08:48:08;;;;;;;7.8;3.5;;;;;;;;;;;;;
2024/03/04 08:50:31;;;;;;;6.4;3.5;;;;;;;;;;;;;
2024/03/04 08:52:57;;;;;;;6.1;3.1;;;;;;;;;;;;;
2024/03/04 08:55:25;;;;;;;4.6;3.3;;;;;;;;;;;;;
2024/03/04 08:57:47;;;;;;;5.3;3.4;;;;;;;;;;;;;
2024/03/04 09:00:12;;;;;;;4.8;3.3;;;;;;;;;;;;;
2024/03/04 09:02:37;;;;;;;5;3.6;;;;;;;;;;;;;
2024/03/04 09:05:04;;;;;;;5;3.9;;;;;;;;;;;;;
2024/03/04 09:07:28;;;;;;;7.8;3.7;;;;;;;;;;;;;
2024/03/04 09:09:53;;;;;;;5.8;3.3;;;;;;;;;;;;;
2024/03/04 09:12:18;;;;;;;6.7;4.2;;;;;;;;;;;;;
2024/03/04 09:14:43;;;;;;;5.7;3.9;;;;;;;;;;;;;
2024/03/04 09:17:08;;;;;;;5.9;3.4;;;;;;;;;;;;;
2024/03/04 09:19:33;;;;;;;6.6;3.9;;;;;;;;;;;;;
2024/03/04 09:21:58;;;;;;;7.6;4.5;;;;;;;;;;;;;
2024/03/04 09:24:23;;;;;;;7;4.4;;;;;;;;;;;;;
2024/03/04 09:26:48;;;;;;;6.2;4.6;;;;;;;;;;;;;
2024/03/04 09:29:14;;;;;;;8.2;5.4;;;;;;;;;;;;;
2024/03/04 09:31:39;;;;;;;6.6;4.6;;;;;;;;;;;;;
2024/03/04 09:34:04;;;;;;;5.9;4.9;;;;;;;;;;;;;
2024/03/04 09:36:29;;;;;;;7.3;4.8;;;;;;;;;;;;;
2024/03/04 09:38:54;;;;;;;8.6;5;;;;;;;;;;;;;
2024/03/04 09:41:19;;;;;;;7.7;4.7;;;;;;;;;;;;;
2024/03/04 09:43:44;;;;;;;7.1;5.3;;;;;;;;;;;;;
2024/03/04 09:46:09;;;;;;;8.3;5.2;;;;;;;;;;;;;
2024/03/04 09:48:34;;;;;;;8.2;4.7;;;;;;;;;;;;;
2024/03/04 09:51:00;;;;;;;6.6;4.4;;;;;;;;;;;;;
2024/03/04 09:53:25;;;;;;;6.7;4.7;;;;;;;;;;;;;
2024/03/04 09:55:50;;;;;;;8.4;5;;;;;;;;;;;;;
2024/03/04 09:58:15;;;;;;;6.5;4.9;;;;;;;;;;;;;
2024/03/04 10:00:40;;;;;;;9.3;5;;;;;;;;;;;;;
2024/03/04 10:03:05;;;;;;;7.1;4.9;;;;;;;;;;;;;
2024/03/04 10:05:30;;;;;;;8.7;4.9;;;;;;;;;;;;;
2024/03/04 10:07:55;;;;;;;10.1;5.5;;;;;;;;;;;;;
2024/03/04 10:10:20;;;;;;;8.5;4.8;;;;;;;;;;;;;
2024/03/04 10:12:46;;;;;;;9.7;5.1;;;;;;;;;;;;;
2024/03/04 10:15:11;;;;;;;8.3;5.5;;;;;;;;;;;;;
2024/03/04 10:17:36;;;;;;;6.7;4.9;;;;;;;;;;;;;
2024/03/04 10:20:01;;;;;;;9.8;5.8;;;;;;;;;;;;;
2024/03/04 10:22:26;;;;;;;8.6;5.3;;;;;;;;;;;;;
2024/03/04 10:24:51;;;;;;;7.9;5.5;;;;;;;;;;;;;
2024/03/04 10:27:16;;;;;;;7.7;5.4;;;;;;;;;;;;;
2024/03/04 10:29:41;;;;;;;6.8;5.4;;;;;;;;;;;;;
2024/03/04 10:32:06;;;;;;;7.9;5.2;;;;;;;;;;;;;
2024/03/04 10:34:32;;;;;;;8.6;5.7;;;;;;;;;;;;;
2024/03/04 10:36:58;;;;;;;8.5;5.8;;;;;;;;;;;;;
2024/03/04 10:39:21;;;;;;;10.3;6;;;;;;;;;;;;;
2024/03/04 10:41:47;;;;;;;8;5.5;;;;;;;;;;;;;
2024/03/04 10:44:12;;;;;;;10.5;6.6;;;;;;;;;;;;;
2024/03/04 10:46:37;;;;;;;10.5;6;;;;;;;;;;;;;
2024/03/04 10:49:02;;;;;;;10.3;6.1;;;;;;;;;;;;;
2024/03/04 10:51:28;;;;;;;10.7;6.5;;;;;;;;;;;;;
2024/03/04 10:53:52;;;;;;;10.6;6.5;;;;;;;;;;;;;
2024/03/04 10:56:17;;;;;;;9.6;6.4;;;;;;;;;;;;;
2024/03/04 10:58:43;;;;;;;10.1;6.3;;;;;;;;;;;;;
2024/03/04 11:01:09;;;;;;;9.7;6.1;;;;;;;;;;;;;
2024/03/04 11:03:33;;;;;;;10.2;6.3;;;;;;;;;;;;;
2024/03/04 11:05:58;;;;;;;7.5;5.9;;;;;;;;;;;;;
2024/03/04 11:08:23;;;;;;;8.6;6.3;;;;;;;;;;;;;
2024/03/04 11:10:48;;;;;;;9.9;6.5;;;;;;;;;;;;;
2024/03/04 11:13:13;;;;;;;9.2;6.7;;;;;;;;;;;;;
2024/03/04 11:15:38;;;;;;;10.2;6.7;;;;;;;;;;;;;
2024/03/04 11:18:03;;;;;;;9.4;6.5;;;;;;;;;;;;;
2024/03/04 11:20:30;;;;;;;9.9;6.6;;;;;;;;;;;;;
2024/03/04 11:22:55;;;;;;;10.6;6.1;;;;;;;;;;;;;
2024/03/04 11:25:20;;;;;;;9.5;6.7;;;;;;;;;;;;;
2024/03/04 11:27:45;;;;;;;9.8;6.5;;;;;;;;;;;;;
2024/03/04 11:30:10;;;;;;;9.4;6.2;;;;;;;;;;;;;
2024/03/04 11:32:35;;;;;;;8.2;5.8;;;;;;;;;;;;;
2024/03/04 11:35:05;;;;;;;9.6;6.6;;;;;;;;;;;;;
2024/03/04 11:37:25;;;;;;;9.2;6.6;;;;;;;;;;;;;
2024/03/04 11:39:50;;;;;;;8.9;6.2;;;;;;;;;;;;;
2024/03/04 11:42:15;;;;;;;8.4;6;;;;;;;;;;;;;
2024/03/04 11:44:41;;;;;;;7.7;6.1;;;;;;;;;;;;;
2024/03/04 11:47:05;;;;;;;10.3;6.2;;;;;;;;;;;;;
2024/03/04 11:49:31;;;;;;;7.9;6;;;;;;;;;;;;;
2024/03/04 11:51:56;;;;;;;8.8;6;;;;;;;;;;;;;
2024/03/04 11:54:21;;;;;;;6.9;5.6;;;;;;;;;;;;;
2024/03/04 11:56:46;;;;;;;6.7;5.3;;;;;;;;;;;;;
2024/03/04 11:59:11;;;;;;;9.8;6;;;;;;;;;;;;;
2024/03/04 12:01:36;;;;;;;9.5;5.9;;;;;;;;;;;;;
2024/03/04 12:04:02;;;;;;;9.7;6.5;;;;;;;;;;;;;
2024/03/04 12:06:26;;;;;;;13.6;6.5;;;;;;;;;;;;;
2024/03/04 12:08:52;;;;;;;9.6;6.8;;;;;;;;;;;;;
2024/03/04 12:11:18;;;;;;;9.2;6.3;;;;;;;;;;;;;
2024/03/04 12:13:43;;;;;;;10.5;6.7;;;;;;;;;;;;;
2024/03/04 12:16:07;;;;;;;8.6;6.4;;;;;;;;;;;;;
2024/03/04 12:18:32;;;;;;;10.3;7.4;;;;;;;;;;;;;
2024/03/04 12:20:58;;;;;;;11.6;7.7;;;;;;;;;;;;;
2024/03/04 12:23:22;;;;;;;13;7.9;;;;;;;;;;;;;
2024/03/04 12:25:48;;;;;;;12.4;7.3;;;;;;;;;;;;;
2024/03/04 12:28:12;;;;;;;12.4;7.4;;;;;;;;;;;;;
2024/03/04 12:30:40;;;;;;;10;6.7;;;;;;;;;;;;;
2024/03/04 12:33:03;;;;;;;10.8;7.7;;;;;;;;;;;;;
2024/03/04 12:35:29;;;;;;;10.7;7.8;;;;;;;;;;;;;
2024/03/04 12:37:53;;;;;;;11.5;7.9;;;;;;;;;;;;;
2024/03/04 12:40:18;;;;;;;12.7;7.8;;;;;;;;;;;;;
2024/03/04 12:42:43;;;;;;;10.2;7.2;;;;;;;;;;;;;
2024/03/04 12:45:08;;;;;;;10.4;7.4;;;;;;;;;;;;;
2024/03/04 12:47:34;;;;;;;11.9;7.9;;;;;;;;;;;;;
2024/03/04 12:49:59;;;;;;;14.7;8.8;;;;;;;;;;;;;
2024/03/04 12:52:25;;;;;;;11.8;7.8;;;;;;;;;;;;;
2024/03/04 12:54:49;;;;;;;11;8;;;;;;;;;;;;;
2024/03/04 12:57:14;;;;;;;13;8.3;;;;;;;;;;;;;
2024/03/04 12:59:40;;;;;;;12;8.1;;;;;;;;;;;;;
2024/03/04 13:02:05;;;;;;;12.4;8.7;;;;;;;;;;;;;
2024/03/04 13:04:30;;;;;;;11.8;8.3;;;;;;;;;;;;;
2024/03/04 13:06:55;;;;;;;12.4;8.6;;;;;;;;;;;;;
2024/03/04 13:09:20;;;;;;;13.7;8.3;;;;;;;;;;;;;
2024/03/04 13:11:46;;;;;;;12.7;8.8;;;;;;;;;;;;;
2024/03/04 13:14:11;;;;;;;13.5;9.1;;;;;;;;;;;;;
2024/03/04 13:16:35;;;;;;;13.4;9.3;;;;;;;;;;;;;
2024/03/04 13:19:00;;;;;;;12.8;8.4;;;;;;;;;;;;;
2024/03/04 13:21:26;;;;;;;14.3;8.7;;;;;;;;;;;;;
2024/03/04 13:23:51;;;;;;;13.2;8.8;;;;;;;;;;;;;
2024/03/04 13:26:16;;;;;;;12.1;8.4;;;;;;;;;;;;;
2024/03/04 13:28:41;;;;;;;12.4;8.5;;;;;;;;;;;;;
2024/03/04 13:31:06;;;;;;;13.5;8.8;;;;;;;;;;;;;
2024/03/04 13:33:31;;;;;;;12.1;8.8;;;;;;;;;;;;;
2024/03/04 13:35:59;;;;;;;13.9;8.9;;;;;;;;;;;;;
2024/03/04 13:38:22;;;;;;;13.8;9.1;;;;;;;;;;;;;
2024/03/04 13:40:46;;;;;;;15.8;8.9;;;;;;;;;;;;;
2024/03/04 13:43:12;;;;;;;12.1;8.7;;;;;;;;;;;;;
2024/03/04 13:45:37;;;;;;;14.6;9;;;;;;;;;;;;;
2024/03/04 13:48:02;;;;;;;13.6;9;;;;;;;;;;;;;
2024/03/04 13:50:27;;;;;;;15.2;10;;;;;;;;;;;;;
2024/03/04 13:52:54;;;;;;;17.2;9.7;;;;;;;;;;;;;
2024/03/04 13:55:17;;;;;;;13.9;9.3;;;;;;;;;;;;;
2024/03/04 13:57:42;;;;;;;13.4;8.6;;;;;;;;;;;;;
2024/03/04 14:00:13;;;;;;;13.8;9;;;;;;;;;;;;;
2024/03/04 14:02:32;;;;;;;15.7;9.9;;;;;;;;;;;;;
2024/03/04 14:04:57;;;;;;;14.1;9.9;;;;;;;;;;;;;
2024/03/04 14:07:22;;;;;;;15;8.9;;;;;;;;;;;;;
2024/03/04 14:09:51;;;;;;;14.5;9.6;;;;;;;;;;;;;
2024/03/04 14:12:13;;;;;;;13.4;8.5;;;;;;;;;;;;;
2024/03/04 14:14:38;;;;;;;13.3;9;;;;;;;;;;;;;
2024/03/04 14:17:03;;;;;;;16;9.4;;;;;;;;;;;;;
2024/03/04 14:19:29;;;;;;;16.1;10;;;;;;;;;;;;;
2024/03/04 14:21:53;;;;;;;15.1;9.3;;;;;;;;;;;;;
2024/03/04 14:24:19;;;;;;;13.8;9.3;;;;;;;;;;;;;
2024/03/04 14:26:43;;;;;;;15.2;9.6;;;;;;;;;;;;;
2024/03/04 14:29:09;;;;;;;16.5;9.8;;;;;;;;;;;;;
2024/03/04 14:31:34;;;;;;;15.6;9.9;;;;;;;;;;;;;
2024/03/04 14:33:59;;;;;;;15.1;9.6;;;;;;;;;;;;;
2024/03/04 14:36:25;;;;;;;16.1;9.9;;;;;;;;;;;;;
2024/03/04 14:38:49;;;;;;;15.4;9.7;;;;;;;;;;;;;
2024/03/04 14:41:14;;;;;;;15.3;8.7;;;;;;;;;;;;;
2024/03/04 14:43:39;;;;;;;16.4;9.4;;;;;;;;;;;;;
2024/03/04 14:46:04;;;;;;;15.5;10.1;;;;;;;;;;;;;
2024/03/04 14:48:30;;;;;;;14.8;9.2;;;;;;;;;;;;;
2024/03/04 14:50:55;;;;;;;14.7;9.1;;;;;;;;;;;;;
2024/03/04 14:53:20;;;;;;;13.8;9.4;;;;;;;;;;;;;
2024/03/04 14:55:45;;;;;;;15.4;8.6;;;;;;;;;;;;;
2024/03/04 14:58:10;;;;;;;15.4;9.2;;;;;;;;;;;;;
2024/03/04 15:00:36;;;;;;;12.8;8.1;;;;;;;;;;;;;
2024/03/04 15:03:00;;;;;;;13.8;8.6;;;;;;;;;;;;;
2024/03/04 15:05:25;;;;;;;12.4;8;;;;;;;;;;;;;
2024/03/04 15:07:50;;;;;;;12.6;8.5;;;;;;;;;;;;;
2024/03/04 15:10:16;;;;;;;14.1;8.8;;;;;;;;;;;;;
2024/03/04 15:12:41;;;;;;;11.7;7.7;;;;;;;;;;;;;
2024/03/04 15:15:06;;;;;;;13.2;8.6;;;;;;;;;;;;;
2024/03/04 15:17:31;;;;;;;12.2;8.3;;;;;;;;;;;;;
2024/03/04 15:19:56;;;;;;;14;8.6;;;;;;;;;;;;;
2024/03/04 15:22:21;;;;;;;12.9;8.1;;;;;;;;;;;;;
2024/03/04 15:24:46;;;;;;;15.3;8;;;;;;;;;;;;;
2024/03/04 15:27:11;;;;;;;12.8;7.8;;;;;;;;;;;;;
2024/03/04 15:29:37;;;;;;;12.8;8.3;;;;;;;;;;;;;
2024/03/04 15:32:02;;;;;;;13.3;8.4;;;;;;;;;;;;;
2024/03/04 15:34:27;;;;;;;13.3;8;;;;;;;;;;;;;
2024/03/04 15:36:52;;;;;;;10.8;7.1;;;;;;;;;;;;;
2024/03/04 15:39:17;;;;;;;11.2;7.7;;;;;;;;;;;;;
2024/03/04 15:41:43;;;;;;;14.1;8.5;;;;;;;;;;;;;
2024/03/04 15:44:08;;;;;;;13.2;8;;;;;;;;;;;;;
2024/03/04 15:46:33;;;;;;;13.9;8;;;;;;;;;;;;;
2024/03/04 15:48:58;;;;;;;12.9;7.8;;;;;;;;;;;;;
2024/03/04 15:51:23;;;;;;;12.3;7.7;;;;;;;;;;;;;
2024/03/04 15:53:48;;;;;;;12.4;7.7;;;;;;;;;;;;;
2024/03/04 15:56:14;;;;;;;11.5;8.2;;;;;;;;;;;;;
2024/03/04 15:58:38;;;;;;;12.8;7.4;;;;;;;;;;;;;
2024/03/04 16:01:04;;;;;;;11.6;7.5;;;;;;;;;;;;;
2024/03/04 16:03:29;;;;;;;12.6;7.5;;;;;;;;;;;;;
2024/03/04 16:05:54;;;;;;;12.6;8;;;;;;;;;;;;;
2024/03/04 16:08:19;;;;;;;13.7;8.4;;;;;;;;;;;;;
2024/03/04 16:10:44;;;;;;;12.1;8.6;;;;;;;;;;;;;
2024/03/04 16:13:09;;;;;;;13.3;8.2;;;;;;;;;;;;;
2024/03/04 16:15:34;;;;;;;12.1;8.3;;;;;;;;;;;;;
2024/03/04 16:17:59;;;;;;;13.3;8.3;;;;;;;;;;;;;
2024/03/04 16:20:26;;;;;;;12.7;8.3;;;;;;;;;;;;;
2024/03/04 16:22:49;;;;;;;12.3;7.9;;;;;;;;;;;;;
2024/03/04 16:25:14;;;;;;;14.3;8.6;;;;;;;;;;;;;
2024/03/04 16:27:39;;;;;;;14.4;8.8;;;;;;;;;;;;;
2024/03/04 16:30:05;;;;;;;13.2;8.4;;;;;;;;;;;;;
2024/03/04 16:32:31;;;;;;;13.3;8.7;;;;;;;;;;;;;
2024/03/04 16:34:55;;;;;;;15;8.4;;;;;;;;;;;;;
2024/03/04 16:37:20;;;;;;;12.5;8.3;;;;;;;;;;;;;
2024/03/04 16:39:46;;;;;;;14.3;8.2;;;;;;;;;;;;;
2024/03/04 16:42:11;;;;;;;12.5;8.1;;;;;;;;;;;;;
2024/03/04 16:44:35;;;;;;;13.3;8.2;;;;;;;;;;;;;
2024/03/04 16:47:01;;;;;;;15.3;8.7;;;;;;;;;;;;;
2024/03/04 16:49:26;;;;;;;11.2;8;;;;;;;;;;;;;
2024/03/04 16:51:51;;;;;;;12.4;7.9;;;;;;;;;;;;;
2024/03/04 16:54:16;;;;;;;12;8.2;;;;;;;;;;;;;
2024/03/04 16:56:41;;;;;;;13.5;8.6;;;;;;;;;;;;;
2024/03/04 16:59:06;;;;;;;10.9;7.7;;;;;;;;;;;;;
2024/03/04 17:01:33;;;;;;;11.4;7.5;;;;;;;;;;;;;
2024/03/04 17:03:58;;;;;;;12.7;7;;;;;;;;;;;;;
2024/03/04 17:06:22;;;;;;;11.9;7.6;;;;;;;;;;;;;
2024/03/04 17:08:46;;;;;;;11.4;7.5;;;;;;;;;;;;;
2024/03/04 17:11:12;;;;;;;12.7;7.7;;;;;;;;;;;;;
2024/03/04 17:13:37;;;;;;;12.6;7.9;;;;;;;;;;;;;
2024/03/04 17:16:04;;;;;;;12.7;7.7;;;;;;;;;;;;;
2024/03/04 17:18:27;;;;;;;12.2;7.9;;;;;;;;;;;;;
2024/03/04 17:20:52;;;;;;;12;7.9;;;;;;;;;;;;;
2024/03/04 17:23:17;;;;;;;10.1;7.2;;;;;;;;;;;;;
2024/03/04 17:25:43;;;;;;;11.1;7;;;;;;;;;;;;;
2024/03/04 17:28:08;;;;;;;14.9;7.8;;;;;;;;;;;;;
2024/03/04 17:30:33;;;;;;;12.2;7.6;;;;;;;;;;;;;
2024/03/04 17:32:58;;;;;;;12.8;7.5;;;;;;;;;;;;;
2024/03/04 17:35:23;;;;;;;11.9;7.7;;;;;;;;;;;;;
2024/03/04 17:37:48;;;;;;;11.3;7;;;;;;;;;;;;;
2024/03/04 17:40:13;;;;;;;12.6;7.1;;;;;;;;;;;;;
2024/03/04 17:42:38;;;;;;;10.9;7.4;;;;;;;;;;;;;
2024/03/04 17:45:04;;;;;;;11.2;7;;;;;;;;;;;;;
2024/03/04 17:47:29;;;;;;;10.5;7.2;;;;;;;;;;;;;
2024/03/04 17:49:54;;;;;;;12.6;7.8;;;;;;;;;;;;;
2024/03/04 17:52:21;;;;;;;11.8;7.5;;;;;;;;;;;;;
2024/03/04 17:54:44;;;;;;;11.6;6.5;;;;;;;;;;;;;
2024/03/04 17:57:09;;;;;;;11.3;7.5;;;;;;;;;;;;;
2024/03/04 17:59:40;;;;;;;10.3;6.8;;;;;;;;;;;;;
2024/03/04 18:01:59;;;;;;;10.8;7.2;;;;;;;;;;;;;
2024/03/04 18:04:25;;;;;;;10.8;6.9;;;;;;;;;;;;;
2024/03/04 18:06:50;;;;;;;10.8;6.8;;;;;;;;;;;;;
2024/03/04 18:09:15;;;;;;;10.5;7.1;;;;;;;;;;;;;
2024/03/04 18:11:40;;;;;;;10.7;7.1;;;;;;;;;;;;;
2024/03/04 18:14:05;;;;;;;9.1;6.2;;;;;;;;;;;;;
2024/03/04 18:16:30;;;;;;;10.9;6.7;;;;;;;;;;;;;
2024/03/04 18:18:57;;;;;;;10.1;6.8;;;;;;;;;;;;;
2024/03/04 18:21:20;;;;;;;11.3;7.2;;;;;;;;;;;;;
2024/03/04 18:23:45;;;;;;;11.2;7.8;;;;;;;;;;;;;
2024/03/04 18:26:11;;;;;;;11.5;7.2;;;;;;;;;;;;;
2024/03/04 18:28:36;;;;;;;10.2;7;;;;;;;;;;;;;
2024/03/04 18:31:01;;;;;;;12.8;7.9;;;;;;;;;;;;;
2024/03/04 18:33:26;;;;;;;12.3;7.7;;;;;;;;;;;;;
2024/03/04 18:35:51;;;;;;;10.9;7.8;;;;;;;;;;;;;
2024/03/04 18:38:16;;;;;;;12.8;8;;;;;;;;;;;;;
2024/03/04 18:40:42;;;;;;;11.5;7.5;;;;;;;;;;;;;
2024/03/04 18:43:06;;;;;;;12.6;7.8;;;;;;;;;;;;;
2024/03/04 18:45:32;;;;;;;12.8;7.8;;;;;;;;;;;;;
2024/03/04 18:47:57;;;;;;;13.2;8.1;;;;;;;;;;;;;
2024/03/04 18:50:22;;;;;;;14.3;7.7;;;;;;;;;;;;;
2024/03/04 18:52:46;;;;;;;12.6;7.9;;;;;;;;;;;;;
2024/03/04 18:55:12;;;;;;;12.7;7.9;;;;;;;;;;;;;
2024/03/04 18:57:37;;;;;;;13.1;8.2;;;;;;;;;;;;;
2024/03/04 19:00:02;;;;;;;14.4;8.5;;;;;;;;;;;;;
2024/03/04 19:02:27;;;;;;;14;8.4;;;;;;;;;;;;;
2024/03/04 19:04:52;;;;;;;13.4;8.6;;;;;;;;;;;;;
2024/03/04 19:07:17;;;;;;;11.6;7.9;;;;;;;;;;;;;
2024/03/04 19:09:43;;;;;;;13.3;8.5;;;;;;;;;;;;;
2024/03/04 19:12:07;;;;;;;14.1;8.6;;;;;;;;;;;;;
2024/03/04 19:14:32;;;;;;;12.6;8.6;;;;;;;;;;;;;
2024/03/04 19:16:58;;;;;;;13.4;8.4;;;;;;;;;;;;;
2024/03/04 19:19:23;;;;;;;12.8;8.8;;;;;;;;;;;;;
2024/03/04 19:21:48;;;;;;;12.2;8.2;;;;;;;;;;;;;
2024/03/04 19:24:13;;;;;;;14.6;9;;;;;;;;;;;;;
2024/03/04 19:26:39;;;;;;;14.1;8.3;;;;;;;;;;;;;
2024/03/04 19:29:03;;;;;;;11.7;8.2;;;;;;;;;;;;;
2024/03/04 19:31:28;;;;;;;11.6;7.9;;;;;;;;;;;;;
2024/03/04 19:33:54;;;;;;;14.1;8.6;;;;;;;;;;;;;
2024/03/04 19:36:19;;;;;;;13.4;8.3;;;;;;;;;;;;;
2024/03/04 19:38:43;;;;;;;13.4;8.3;;;;;;;;;;;;;
2024/03/04 19:41:12;;;;;;;12.6;8.6;;;;;;;;;;;;;
2024/03/04 19:43:34;;;;;;;15.1;9;;;;;;;;;;;;;
2024/03/04 19:45:59;;;;;;;15;9.1;;;;;;;;;;;;;
2024/03/04 19:48:24;;;;;;;15.2;9.4;;;;;;;;;;;;;
2024/03/04 19:50:55;;;;;;;14.5;9.5;;;;;;;;;;;;;
2024/03/04 19:53:14;;;;;;;13.3;8.5;;;;;;;;;;;;;
2024/03/04 19:55:39;;;;;;;16;10.4;;;;;;;;;;;;;
2024/03/04 19:58:04;;;;;;;17.1;10.7;;;;;;;;;;;;;
2024/03/04 20:00:30;;;;;;;16.8;10.4;;;;;;;;;;;;;
2024/03/04 20:02:55;;;;;;;14.5;10.2;;;;;;;;;;;;;
2024/03/04 20:05:21;;;;;;;15.9;10.3;;;;;;;;;;;;;
2024/03/04 20:07:45;;;;;;;18.2;11.3;;;;;;;;;;;;;
2024/03/04 20:10:10;;;;;;;14.5;10.1;;;;;;;;;;;;;
2024/03/04 20:12:35;;;;;;;17.1;10.4;;;;;;;;;;;;;
2024/03/04 20:15:00;;;;;;;17.1;11.1;;;;;;;;;;;;;
2024/03/04 20:17:25;;;;;;;17.4;10.4;;;;;;;;;;;;;